Time;durP1;ratioP1;P1;durP2;ratioP2;P2;SDS_P1;SDS_P2;PMS_P1;PMS_P2;Temp;Humidity;BMP_temperature;BMP_pressure;BME280_temperature;BME280_humidity;BME280_pressure;Samples;Min_cycle;Max_cycle;Signal;HPM_P1;HPM_P2
2021/07/23 00:01:14;;;;;;;10.18;3.88;;;9.80;74.10;;;;;;5105022;28;20027;-74
2021/07/23 00:03:41;;;;;;;13.05;2.90;;;9.80;74.20;;;;;;5101475;28;20024;-71
2021/07/23 00:06:07;;;;;;;7.25;2.80;;;9.80;74.50;;;;;;5105705;28;20020;-70
2021/07/23 00:08:34;;;;;;;6.63;2.50;;;9.80;74.50;;;;;;5108303;27;20056;-70
2021/07/23 00:11:01;;;;;;;10.30;2.67;;;9.70;74.20;;;;;;5108277;28;20541;-71
2021/07/23 00:13:27;;;;;;;6.07;3.08;;;9.70;74.30;;;;;;5104487;28;20028;-69
2021/07/23 00:15:54;;;;;;;5.05;2.08;;;9.70;74.40;;;;;;5099845;28;20526;-70
2021/07/23 00:18:21;;;;;;;11.93;3.30;;;9.70;74.40;;;;;;5107864;28;20024;-69
2021/07/23 00:21:27;;;;;;;3.97;1.95;;;9.70;74.70;;;;;;5100145;28;20016;-74
2021/07/23 00:24:31;;;;;;;6.53;2.70;;;9.70;74.80;;;;;;5106038;28;20346;-70
2021/07/23 00:26:57;;;;;;;6.28;2.00;;;9.70;74.60;;;;;;5103632;28;20118;-69
2021/07/23 00:29:24;;;;;;;5.28;2.15;;;9.70;74.50;;;;;;5101983;28;20614;-70
2021/07/23 00:31:53;;;;;;;7.65;2.15;;;9.70;74.50;;;;;;5105632;28;20061;-70
2021/07/23 00:34:19;;;;;;;5.90;2.95;;;9.80;74.70;;;;;;5105041;28;20016;-71
2021/07/23 00:36:46;;;;;;;10.63;1.85;;;9.80;74.60;;;;;;5111768;28;20076;-68
2021/07/23 00:39:12;;;;;;;4.40;1.52;;;9.80;74.60;;;;;;5108617;28;20032;-68
2021/07/23 00:41:39;;;;;;;2.47;1.60;;;9.80;74.50;;;;;;5101772;28;20034;-70
2021/07/23 00:44:05;;;;;;;5.32;2.20;;;9.80;74.30;;;;;;5103744;28;20377;-68
2021/07/23 00:46:35;;;;;;;6.50;2.03;;;9.80;74.20;;;;;;5102216;28;20011;-69
2021/07/23 00:49:02;;;;;;;9.27;2.05;;;9.80;73.90;;;;;;5100840;28;20012;-69
2021/07/23 00:51:29;;;;;;;2.40;1.30;;;9.90;73.90;;;;;;5102921;28;20042;-70
2021/07/23 00:53:56;;;;;;;6.55;3.47;;;9.80;73.70;;;;;;5104945;28;20039;-68
2021/07/23 00:56:23;;;;;;;4.82;1.48;;;9.80;73.70;;;;;;5104882;28;20498;-69
2021/07/23 00:58:50;;;;;;;6.93;1.48;;;9.80;73.80;;;;;;5100830;28;20031;-70
2021/07/23 01:01:16;;;;;;;3.67;1.25;;;9.80;73.90;;;;;;5104728;28;20024;-69
2021/07/23 01:03:43;;;;;;;4.03;1.48;;;9.80;73.80;;;;;;5104774;28;20406;-68
2021/07/23 01:06:10;;;;;;;4.40;2.20;;;9.80;73.80;;;;;;5099963;28;20077;-69
2021/07/23 01:08:37;;;;;;;5.68;1.40;;;9.80;73.80;;;;;;5104787;28;20028;-67
2021/07/23 01:11:03;;;;;;;5.03;1.75;;;9.80;73.80;;;;;;5111270;27;20122;-69
2021/07/23 01:13:30;;;;;;;3.75;1.08;;;9.80;73.70;;;;;;5101600;28;20026;-70
2021/07/23 01:15:56;;;;;;;6.13;1.10;;;9.80;73.50;;;;;;5099602;28;20077;-68
2021/07/23 01:18:23;;;;;;;5.78;1.63;;;9.90;73.50;;;;;;5108771;28;20028;-68
2021/07/23 01:20:52;;;;;;;9.70;1.73;;;9.80;73.40;;;;;;5100087;28;20008;-69
2021/07/23 01:23:30;;;;;;;5.70;2.03;;;9.80;73.40;;;;;;5104070;28;20093;-70
2021/07/23 01:26:01;;;;;;;4.07;1.35;;;9.80;73.40;;;;;;5101197;28;20076;-70
2021/07/23 01:28:30;;;;;;;3.92;1.70;;;9.80;73.40;;;;;;5103100;28;20032;-70
2021/07/23 01:30:58;;;;;;;7.10;1.60;;;9.80;73.30;;;;;;5103953;28;20039;-68
2021/07/23 01:33:25;;;;;;;3.00;1.35;;;9.70;73.30;;;;;;5105024;28;20565;-67
2021/07/23 01:35:52;;;;;;;7.35;1.77;;;9.70;73.40;;;;;;5101307;28;20114;-70
2021/07/23 01:38:22;;;;;;;5.47;1.58;;;9.70;73.40;;;;;;5097775;28;20019;-68
2021/07/23 01:40:49;;;;;;;4.63;1.42;;;9.70;73.80;;;;;;5106128;28;20050;-69
2021/07/23 01:43:16;;;;;;;3.60;1.58;;;9.70;73.50;;;;;;5103197;28;20040;-68
2021/07/23 01:45:43;;;;;;;5.22;1.85;;;9.60;73.40;;;;;;5101290;28;20032;-69
2021/07/23 01:48:10;;;;;;;3.30;1.50;;;9.60;73.50;;;;;;5096690;28;20031;-68
2021/07/23 01:50:36;;;;;;;5.75;1.88;;;9.60;73.40;;;;;;5097273;28;20036;-67
2021/07/23 01:53:04;;;;;;;4.03;1.42;;;9.60;73.50;;;;;;5103959;28;20378;-67
2021/07/23 01:55:31;;;;;;;9.43;2.88;;;9.60;73.80;;;;;;5106741;28;20027;-69
2021/07/23 01:57:58;;;;;;;6.97;1.85;;;9.50;74.20;;;;;;5102228;28;21776;-69
2021/07/23 02:00:25;;;;;;;6.95;1.92;;;9.50;74.40;;;;;;5095373;28;20039;-69
2021/07/23 02:02:51;;;;;;;7.63;2.85;;;9.40;74.10;;;;;;5097105;28;20432;-67
2021/07/23 02:05:18;;;;;;;5.80;1.83;;;9.40;74.40;;;;;;5102808;28;20020;-70
2021/07/23 02:07:44;;;;;;;4.40;1.67;;;9.30;74.80;;;;;;5098445;28;20482;-69
2021/07/23 02:10:11;;;;;;;6.90;2.05;;;9.30;74.70;;;;;;5101569;28;20556;-67
2021/07/23 02:12:37;;;;;;;8.82;2.05;;;9.20;74.60;;;;;;5100679;28;20020;-71
2021/07/23 02:15:06;;;;;;;5.75;1.23;;;9.20;74.80;;;;;;5103863;28;20378;-72
2021/07/23 02:17:32;;;;;;;7.68;2.15;;;9.20;75.30;;;;;;5102780;28;20019;-71
2021/07/23 02:19:59;;;;;;;4.32;1.77;;;9.10;75.40;;;;;;5105696;28;20046;-70
2021/07/23 02:22:25;;;;;;;5.88;2.00;;;9.10;75.10;;;;;;5106544;28;20490;-67
2021/07/23 02:24:52;;;;;;;10.32;3.20;;;9.10;75.20;;;;;;5097103;28;20512;-67
2021/07/23 02:27:18;;;;;;;7.20;2.28;;;9.00;75.10;;;;;;5100610;28;20024;-68
2021/07/23 02:29:45;;;;;;;8.80;2.35;;;9.00;75.30;;;;;;5102326;28;20043;-69
2021/07/23 02:32:11;;;;;;;6.45;2.60;;;9.00;75.50;;;;;;5104350;28;20118;-68
2021/07/23 02:34:38;;;;;;;6.13;2.33;;;9.00;75.90;;;;;;5105528;28;20024;-68
2021/07/23 02:37:04;;;;;;;6.78;2.10;;;8.90;75.90;;;;;;5107079;27;20470;-67
2021/07/23 02:39:31;;;;;;;5.30;2.65;;;8.90;75.80;;;;;;5106260;28;20405;-69
2021/07/23 02:41:57;;;;;;;8.30;3.60;;;8.80;76.10;;;;;;5104544;28;20459;-68
2021/07/23 02:44:24;;;;;;;9.10;2.50;;;8.80;76.00;;;;;;5102282;28;20378;-70
2021/07/23 02:46:50;;;;;;;6.55;2.35;;;8.70;76.10;;;;;;5105812;28;20454;-67
2021/07/23 02:49:16;;;;;;;4.85;2.03;;;8.80;75.90;;;;;;5106608;28;20031;-66
2021/07/23 02:51:43;;;;;;;8.02;2.70;;;8.70;75.80;;;;;;5104887;28;20073;-70
2021/07/23 02:54:09;;;;;;;6.25;2.00;;;8.70;76.00;;;;;;5102045;28;20099;-69
2021/07/23 02:56:36;;;;;;;5.47;2.38;;;8.70;76.00;;;;;;5098070;28;20017;-69
2021/07/23 02:59:02;;;;;;;14.80;2.75;;;8.70;76.10;;;;;;5109088;28;20084;-72
2021/07/23 03:01:29;;;;;;;6.75;2.53;;;8.60;75.80;;;;;;5104862;28;20024;-68
2021/07/23 03:03:55;;;;;;;8.60;3.20;;;8.70;75.50;;;;;;5107578;27;20133;-72
2021/07/23 03:06:22;;;;;;;9.00;3.78;;;8.60;75.50;;;;;;5103928;28;20120;-69
2021/07/23 03:08:48;;;;;;;11.68;3.92;;;8.70;75.90;;;;;;5101504;28;20032;-70
2021/07/23 03:11:15;;;;;;;7.47;3.45;;;8.70;75.10;;;;;;5103376;28;20051;-68
2021/07/23 03:13:42;;;;;;;7.88;3.53;;;8.70;75.10;;;;;;5102141;28;20023;-68
2021/07/23 03:16:14;;;;;;;6.00;3.45;;;8.70;75.10;;;;;;5102136;28;20019;-68
2021/07/23 03:18:41;;;;;;;7.72;3.13;;;8.60;75.40;;;;;;5112004;28;20477;-69
2021/07/23 03:21:09;;;;;;;14.43;4.10;;;8.70;75.60;;;;;;5104332;28;20072;-68
2021/07/23 03:23:36;;;;;;;9.45;2.97;;;8.70;75.70;;;;;;5101239;28;20042;-67
2021/07/23 03:26:07;;;;;;;10.15;3.80;;;8.70;75.90;;;;;;5100576;28;20042;-68
2021/07/23 03:28:33;;;;;;;8.18;4.10;;;8.80;76.00;;;;;;5106950;28;20034;-67
2021/07/23 03:31:00;;;;;;;10.80;3.97;;;8.80;75.70;;;;;;5108185;28;20430;-68
2021/07/23 03:33:26;;;;;;;7.80;3.05;;;8.80;75.30;;;;;;5103313;28;20035;-68
2021/07/23 03:35:53;;;;;;;7.53;3.88;;;8.80;75.00;;;;;;5100387;28;20023;-68
2021/07/23 03:38:20;;;;;;;8.30;3.22;;;8.90;74.90;;;;;;5106769;28;20051;-67
2021/07/23 03:40:46;;;;;;;10.02;3.40;;;8.80;74.90;;;;;;5104165;28;20077;-67
2021/07/23 03:43:13;;;;;;;5.97;2.55;;;8.80;74.60;;;;;;5104304;28;20054;-69
2021/07/23 03:45:39;;;;;;;36.53;24.13;;;8.80;74.60;;;;;;5104818;28;20020;-68
2021/07/23 03:48:06;;;;;;;20.92;11.30;;;8.90;74.80;;;;;;5103649;28;20105;-68
2021/07/23 03:50:32;;;;;;;6.43;3.40;;;8.90;74.80;;;;;;5107292;28;20036;-72
2021/07/23 03:52:59;;;;;;;5.82;3.10;;;8.90;74.50;;;;;;5104547;28;20361;-68
2021/07/23 03:55:25;;;;;;;4.45;2.03;;;8.90;74.10;;;;;;5105789;28;20024;-68
2021/07/23 03:57:51;;;;;;;4.53;2.28;;;8.90;73.90;;;;;;5097498;28;20539;-67
2021/07/23 04:00:18;;;;;;;2.70;1.98;;;8.90;73.80;;;;;;5108937;27;20527;-68
2021/07/23 04:02:45;;;;;;;6.55;1.52;;;8.90;73.90;;;;;;5099503;28;20016;-68
2021/07/23 04:05:11;;;;;;;5.53;2.00;;;8.90;73.80;;;;;;5108126;28;20107;-67
2021/07/23 04:07:38;;;;;;;31.85;16.50;;;8.90;73.70;;;;;;5099655;28;20019;-67
2021/07/23 04:10:05;;;;;;;28.15;17.65;;;8.90;73.80;;;;;;5100028;28;20074;-70
2021/07/23 04:13:11;;;;;;;13.75;6.85;;;9.00;74.00;;;;;;5105915;28;20027;-66
2021/07/23 04:16:17;;;;;;;4.68;1.63;;;8.90;73.60;;;;;;5104974;28;20046;-71
2021/07/23 04:19:23;;;;;;;7.80;1.70;;;8.90;73.30;;;;;;5105439;28;20024;-67
2021/07/23 04:21:53;;;;;;;5.43;2.33;;;8.90;73.40;;;;;;5106258;28;20031;-69
2021/07/23 04:24:20;;;;;;;7.88;2.38;;;9.00;73.40;;;;;;5098045;28;20272;-67
2021/07/23 04:26:46;;;;;;;5.88;2.50;;;8.90;73.30;;;;;;5105534;28;20066;-67
2021/07/23 04:29:13;;;;;;;7.85;2.55;;;8.90;73.40;;;;;;5101169;28;20054;-69
2021/07/23 04:31:39;;;;;;;19.25;13.00;;;8.90;73.40;;;;;;5099659;28;20039;-74
2021/07/23 04:34:06;;;;;;;13.98;7.78;;;8.90;73.50;;;;;;5104125;28;20031;-68
2021/07/23 04:36:35;;;;;;;4.15;1.88;;;8.90;73.60;;;;;;5105606;28;20019;-68
2021/07/23 04:39:03;;;;;;;4.57;1.88;;;8.90;73.50;;;;;;5108755;28;20019;-70
2021/07/23 04:41:31;;;;;;;5.07;2.05;;;8.90;73.70;;;;;;5105154;28;20131;-66
2021/07/23 04:43:57;;;;;;;7.97;1.65;;;8.80;73.70;;;;;;5105154;28;20022;-66
2021/07/23 04:46:24;;;;;;;6.47;1.73;;;8.80;74.10;;;;;;5103109;28;20024;-65
2021/07/23 04:48:51;;;;;;;4.97;1.35;;;8.80;74.40;;;;;;5108695;28;20023;-64
2021/07/23 04:51:17;;;;;;;1.75;1.38;;;8.80;74.50;;;;;;5108606;27;20079;-67
2021/07/23 04:53:44;;;;;;;3.63;1.63;;;8.80;74.60;;;;;;5104341;28;20024;-67
2021/07/23 04:56:15;;;;;;;8.60;2.08;;;8.80;74.80;;;;;;5104167;28;20048;-68
2021/07/23 04:59:21;;;;;;;6.97;1.80;;;8.80;74.90;;;;;;5100093;28;20031;-63
2021/07/23 05:02:28;;;;;;;7.90;2.63;;;8.80;74.70;;;;;;5104797;28;20057;-66
2021/07/23 05:05:34;;;;;;;4.10;1.00;;;8.80;74.50;;;;;;5101844;28;20032;-66
2021/07/23 05:08:40;;;;;;;8.75;2.38;;;8.80;74.80;;;;;;5102214;28;20038;-64
2021/07/23 05:11:46;;;;;;;4.47;1.60;;;8.80;74.90;;;;;;5101133;28;20035;-65
2021/07/23 05:14:52;;;;;;;4.17;1.93;;;8.80;74.70;;;;;;5101663;28;20424;-64
2021/07/23 05:17:58;;;;;;;13.07;2.10;;;8.80;74.60;;;;;;5106324;28;20615;-65
2021/07/23 05:21:05;;;;;;;4.82;2.10;;;8.80;74.50;;;;;;5108577;28;20027;-64
2021/07/23 05:24:11;;;;;;;8.87;2.17;;;8.80;74.30;;;;;;5099188;28;20040;-65
2021/07/23 05:27:17;;;;;;;8.07;3.57;;;8.80;74.20;;;;;;5104751;28;20024;-67
2021/07/23 05:30:23;;;;;;;6.63;1.73;;;8.80;74.30;;;;;;5099523;28;20363;-68
2021/07/23 05:32:50;;;;;;;5.75;1.80;;;8.70;74.40;;;;;;5093836;28;20101;-65
2021/07/23 05:35:16;;;;;;;5.72;2.35;;;8.80;74.40;;;;;;5097704;28;20032;-66
2021/07/23 05:37:42;;;;;;;3.80;1.30;;;8.70;74.30;;;;;;5096068;28;20055;-69
2021/07/23 05:40:11;;;;;;;6.13;1.50;;;8.70;74.40;;;;;;5099794;28;20022;-67
2021/07/23 05:42:41;;;;;;;4.38;2.47;;;8.80;74.50;;;;;;5094680;28;20526;-64
2021/07/23 05:45:08;;;;;;;7.85;1.40;;;8.80;74.30;;;;;;5097474;28;20027;-70
2021/07/23 05:47:34;;;;;;;3.78;1.50;;;8.80;74.20;;;;;;5105437;28;20484;-65
2021/07/23 05:50:01;;;;;;;4.53;2.00;;;8.80;74.10;;;;;;5104463;28;20496;-67
2021/07/23 05:52:28;;;;;;;10.00;1.55;;;8.80;74.20;;;;;;5097774;28;20023;-66
2021/07/23 05:54:54;;;;;;;5.63;1.73;;;8.70;74.40;;;;;;5100780;28;20036;-66
2021/07/23 05:57:24;;;;;;;7.30;2.97;;;8.80;74.60;;;;;;5107262;28;20027;-63
2021/07/23 05:59:53;;;;;;;5.18;1.75;;;8.80;74.60;;;;;;5101327;28;20081;-64
2021/07/23 06:02:20;;;;;;;9.25;3.05;;;8.80;74.70;;;;;;5119772;27;20061;-65
2021/07/23 06:04:46;;;;;;;5.55;2.03;;;8.80;74.90;;;;;;5095523;28;20024;-64
2021/07/23 06:07:14;;;;;;;7.40;2.58;;;8.80;75.00;;;;;;5100829;28;20115;-67
2021/07/23 06:09:41;;;;;;;9.80;3.28;;;8.80;75.10;;;;;;5101791;28;20043;-66
2021/07/23 06:12:08;;;;;;;7.80;3.05;;;8.80;75.10;;;;;;5104246;28;20056;-67
2021/07/23 06:14:35;;;;;;;8.65;2.25;;;8.80;75.20;;;;;;5105162;28;20043;-73
2021/07/23 06:17:01;;;;;;;8.32;2.47;;;8.80;75.20;;;;;;5100424;28;20111;-66
2021/07/23 06:19:28;;;;;;;6.75;2.05;;;8.90;75.20;;;;;;5101949;28;20031;-66
2021/07/23 06:21:55;;;;;;;5.38;1.92;;;8.90;75.20;;;;;;5107135;28;20031;-70
2021/07/23 06:24:21;;;;;;;9.50;2.25;;;8.90;75.20;;;;;;5100713;28;20027;-75
2021/07/23 06:26:47;;;;;;;4.22;1.73;;;8.90;75.20;;;;;;5106127;28;20156;-72
2021/07/23 06:29:14;;;;;;;7.70;2.30;;;8.90;75.30;;;;;;5103593;28;20672;-66
2021/07/23 06:31:41;;;;;;;3.78;1.80;;;8.90;75.90;;;;;;5102258;28;20100;-66
2021/07/23 06:34:07;;;;;;;4.97;2.65;;;8.90;75.30;;;;;;5101784;28;20032;-69
2021/07/23 06:36:35;;;;;;;7.20;2.50;;;9.00;75.40;;;;;;5106263;28;20019;-67
2021/07/23 06:39:01;;;;;;;15.48;8.73;;;9.00;76.10;;;;;;5107206;28;20020;-65
2021/07/23 06:41:28;;;;;;;26.30;8.45;;;9.00;75.50;;;;;;5104998;28;20020;-66
2021/07/23 06:43:54;;;;;;;13.25;8.10;;;9.00;75.50;;;;;;5104012;28;20027;-71
2021/07/23 06:47:00;;;;;;;11.45;3.72;;;9.10;75.60;;;;;;5100034;28;20024;-70
2021/07/23 06:50:06;;;;;;;3.47;2.03;;;9.10;75.70;;;;;;5096653;28;20353;-69
2021/07/23 06:53:12;;;;;;;5.87;2.13;;;9.10;75.70;;;;;;5104638;28;20036;-64
2021/07/23 06:56:18;;;;;;;14.10;4.73;;;9.20;75.70;;;;;;5100051;28;20151;-70
2021/07/23 06:59:24;;;;;;;3.43;2.43;;;9.20;75.80;;;;;;5103967;28;20806;-68
2021/07/23 07:02:30;;;;;;;7.53;2.60;;;9.20;75.60;;;;;;5103875;28;20034;-68
2021/07/23 07:05:36;;;;;;;7.37;2.10;;;9.30;75.70;;;;;;5097596;28;20841;-70
2021/07/23 07:08:03;;;;;;;8.07;2.43;;;9.30;75.70;;;;;;5099012;28;20050;-66
2021/07/23 07:10:30;;;;;;;6.63;2.60;;;9.40;75.70;;;;;;5101847;28;20333;-69
2021/07/23 07:13:00;;;;;;;6.43;1.90;;;9.40;75.80;;;;;;5101891;28;20910;-70
2021/07/23 07:15:27;;;;;;;3.70;2.00;;;9.50;75.90;;;;;;5104713;28;20039;-67
2021/07/23 07:18:01;;;;;;;5.32;1.88;;;9.50;75.90;;;;;;5099998;28;20020;-68
2021/07/23 07:20:29;;;;;;;15.43;7.00;;;9.50;75.90;;;;;;5107198;28;20015;-69
2021/07/23 07:22:56;;;;;;;11.63;7.57;;;9.60;76.00;;;;;;5102111;28;20382;-68
2021/07/23 07:25:23;;;;;;;15.73;8.52;;;9.60;75.90;;;;;;5103806;28;20485;-69
2021/07/23 07:27:50;;;;;;;7.15;2.95;;;9.70;76.00;;;;;;5107118;28;20321;-67
2021/07/23 07:30:16;;;;;;;5.88;2.55;;;9.70;76.00;;;;;;5107161;28;20383;-66
2021/07/23 07:32:43;;;;;;;5.18;1.88;;;9.80;75.90;;;;;;5108188;28;20020;-69
2021/07/23 07:35:10;;;;;;;7.93;2.38;;;9.80;75.60;;;;;;5105732;27;20027;-68
2021/07/23 07:37:37;;;;;;;3.80;1.30;;;9.90;75.20;;;;;;5107575;28;20513;-68
2021/07/23 07:40:04;;;;;;;3.58;1.30;;;9.90;75.40;;;;;;5101214;28;20028;-64
2021/07/23 07:42:31;;;;;;;3.83;1.55;;;10.00;75.80;;;;;;5096724;28;20085;-65
2021/07/23 07:44:59;;;;;;;20.63;11.98;;;10.00;75.70;;;;;;5107362;28;20080;-65
2021/07/23 07:47:25;;;;;;;30.52;15.55;;;10.00;75.50;;;;;;5100814;28;20019;-67
2021/07/23 07:49:52;;;;;;;10.98;3.88;;;10.10;74.90;;;;;;5106760;27;20032;-68
2021/07/23 07:52:19;;;;;;;13.93;2.45;;;10.10;75.20;;;;;;5102006;28;20035;-67
2021/07/23 07:54:46;;;;;;;7.28;2.63;;;10.20;74.90;;;;;;5105550;28;20034;-67
2021/07/23 07:57:13;;;;;;;6.78;3.65;;;10.20;74.10;;;;;;5107755;27;20019;-68
2021/07/23 07:59:40;;;;;;;5.07;1.42;;;10.30;73.60;;;;;;5103123;28;20487;-67
2021/07/23 08:02:10;;;;;;;9.98;2.60;;;10.30;73.20;;;;;;5107399;28;20016;-67
2021/07/23 08:04:37;;;;;;;15.85;2.80;;;10.40;72.80;;;;;;5103167;28;20474;-67
2021/07/23 08:07:07;;;;;;;6.60;2.17;;;10.40;72.60;;;;;;5102142;28;20106;-66
2021/07/23 08:10:02;;;;;;;5.32;2.08;;;10.50;72.70;;;;;;5102890;28;20519;-66
2021/07/23 08:12:30;;;;;;;8.60;2.05;;;10.50;71.90;;;;;;5103636;28;20044;-68
2021/07/23 08:14:57;;;;;;;7.90;2.30;;;10.60;71.40;;;;;;5105119;28;20048;-65
2021/07/23 08:17:25;;;;;;;8.73;2.42;;;10.60;71.10;;;;;;5105397;28;20031;-66
2021/07/23 08:19:51;;;;;;;8.45;2.90;;;10.70;71.00;;;;;;5107291;27;20024;-66
2021/07/23 08:22:18;;;;;;;8.82;2.22;;;10.80;70.30;;;;;;5105959;28;20043;-67
2021/07/23 08:24:45;;;;;;;7.53;2.42;;;10.80;69.60;;;;;;5101108;28;20035;-66
2021/07/23 08:27:13;;;;;;;8.77;2.63;;;10.90;69.50;;;;;;5104156;28;20028;-66
2021/07/23 08:29:40;;;;;;;5.65;2.30;;;11.00;69.20;;;;;;5098839;28;20016;-68
2021/07/23 08:32:11;;;;;;;6.57;2.45;;;11.10;68.70;;;;;;5100483;28;20024;-67
2021/07/23 08:34:38;;;;;;;6.95;2.80;;;11.10;68.30;;;;;;5101417;28;20020;-66
2021/07/23 08:37:05;;;;;;;7.93;2.53;;;11.10;68.20;;;;;;5110164;28;20019;-66
2021/07/23 08:39:33;;;;;;;8.00;2.35;;;11.10;67.20;;;;;;5105068;28;20372;-66
2021/07/23 08:41:59;;;;;;;6.13;1.92;;;11.20;66.30;;;;;;5107405;28;20066;-67
2021/07/23 08:44:27;;;;;;;10.45;2.47;;;11.20;66.30;;;;;;5103737;28;20024;-66
2021/07/23 08:46:54;;;;;;;11.18;3.38;;;11.30;66.20;;;;;;5097746;28;20099;-66
2021/07/23 08:49:20;;;;;;;8.32;2.95;;;11.40;66.70;;;;;;5103970;28;20487;-66
2021/07/23 08:52:30;;;;;;;6.85;3.45;;;11.40;66.10;;;;;;5103848;28;20039;-69
2021/07/23 08:54:56;;;;;;;6.22;3.20;;;11.50;66.30;;;;;;5105657;28;20429;-67
2021/07/23 08:57:22;;;;;;;9.15;4.03;;;11.60;66.50;;;;;;5101176;28;20034;-69
2021/07/23 08:59:49;;;;;;;12.90;4.30;;;11.60;65.90;;;;;;5102035;28;20102;-70
2021/07/23 09:02:16;;;;;;;134.25;93.15;;;11.70;65.90;;;;;;5103474;28;20043;-67
2021/07/23 09:04:42;;;;;;;19.80;11.50;;;11.80;66.00;;;;;;5100279;28;20020;-67
2021/07/23 09:07:29;;;;;;;11.88;5.00;;;11.90;65.50;;;;;;5102433;28;20020;-70
2021/07/23 09:10:04;;;;;;;7.75;3.78;;;11.90;65.80;;;;;;5103610;28;20077;-66
2021/07/23 09:12:45;;;;;;;9.20;3.72;;;12.00;64.50;;;;;;5104180;28;20019;-68
2021/07/23 09:15:23;;;;;;;8.32;2.97;;;12.10;62.70;;;;;;5103996;28;20065;-67
2021/07/23 09:17:51;;;;;;;7.30;2.08;;;12.20;62.60;;;;;;5099205;28;20356;-66
2021/07/23 09:20:22;;;;;;;8.50;2.03;;;12.20;62.10;;;;;;5103725;28;20038;-65
2021/07/23 09:22:59;;;;;;;5.75;1.95;;;12.30;63.10;;;;;;5101238;28;20044;-66
2021/07/23 09:25:43;;;;;;;6.50;1.83;;;12.30;59.40;;;;;;5107010;28;20023;-65
2021/07/23 09:28:28;;;;;;;7.68;2.35;;;12.40;59.10;;;;;;5102606;28;20423;-65
2021/07/23 09:30:56;;;;;;;3.10;1.85;;;12.50;60.20;;;;;;5100013;28;20034;-65
2021/07/23 09:33:27;;;;;;;4.78;1.83;;;12.60;58.90;;;;;;5101134;28;20030;-67
2021/07/23 09:35:55;;;;;;;5.32;1.85;;;12.70;59.60;;;;;;5102481;28;20795;-65
2021/07/23 09:38:33;;;;;;;4.10;1.80;;;12.70;59.90;;;;;;5102927;28;20425;-66
2021/07/23 09:41:00;;;;;;;12.75;7.68;;;12.90;59.00;;;;;;5104649;28;20026;-64
2021/07/23 09:43:34;;;;;;;9.85;4.90;;;12.90;59.70;;;;;;5091375;28;20036;-68
2021/07/23 09:46:20;;;;;;;6.33;3.00;;;13.00;58.80;;;;;;5099735;28;20049;-67
2021/07/23 09:49:06;;;;;;;;;;;13.10;59.60;;;;;;5099451;28;20364;-65
2021/07/23 09:52:12;;;;;;;6.85;2.65;;;13.10;57.30;;;;;;5099497;28;19927;-69
2021/07/23 09:55:18;;;;;;;2.85;1.65;;;13.30;56.80;;;;;;5103668;28;20035;-68
2021/07/23 09:58:24;;;;;;;3.40;2.05;;;13.30;55.90;;;;;;5096406;28;20030;-65
2021/07/23 10:01:33;;;;;;;6.93;2.42;;;13.50;57.90;;;;;;5099674;28;20031;-66
2021/07/23 10:04:11;;;;;;;7.55;2.17;;;13.60;54.60;;;;;;5098684;28;20097;-68
2021/07/23 10:07:00;;;;;;;6.05;1.42;;;13.70;53.80;;;;;;5101329;28;20809;-64
2021/07/23 10:09:30;;;;;;;5.55;1.50;;;13.70;55.40;;;;;;5102354;28;20035;-68
2021/07/23 10:12:00;;;;;;;4.82;1.60;;;13.90;55.70;;;;;;5104063;28;20023;-65
2021/07/23 10:14:28;;;;;;;3.17;1.30;;;14.00;54.10;;;;;;5103243;28;20016;-65
2021/07/23 10:16:55;;;;;;;5.78;1.70;;;14.10;54.50;;;;;;5105819;28;20442;-65
2021/07/23 10:19:23;;;;;;;6.57;1.30;;;14.20;55.20;;;;;;5102554;28;20031;-63
2021/07/23 10:21:54;;;;;;;43.67;35.92;;;14.30;54.20;;;;;;5099312;28;20039;-65
2021/07/23 10:24:21;;;;;;;23.00;14.65;;;14.40;55.20;;;;;;5102756;28;20095;-65
2021/07/23 10:26:48;;;;;;;5.45;2.45;;;14.40;52.20;;;;;;5102694;28;20035;-68
2021/07/23 10:29:35;;;;;;;3.13;1.75;;;14.60;52.10;;;;;;5099415;28;20032;-67
2021/07/23 10:32:24;;;;;;;1.77;1.45;;;14.80;51.40;;;;;;5097008;28;20019;-69
2021/07/23 10:35:16;;;;;;;5.07;1.30;;;14.90;51.00;;;;;;5101229;28;20030;-66
2021/07/23 10:38:08;;;;;;;7.07;1.20;;;15.00;51.00;;;;;;5103430;28;20035;-66
2021/07/23 10:40:54;;;;;;;5.25;1.60;;;15.10;50.10;;;;;;5098892;28;20446;-68
2021/07/23 10:43:35;;;;;;;2.83;2.10;;;15.20;49.40;;;;;;5116135;28;20024;-68
2021/07/23 10:46:01;;;;;;;5.43;2.08;;;15.30;50.10;;;;;;5098725;28;20016;-68
2021/07/23 10:48:48;;;;;;;2.65;1.73;;;15.30;48.80;;;;;;5100321;28;20016;-69
2021/07/23 10:51:47;;;;;;;3.90;1.60;;;15.50;50.20;;;;;;5098513;28;20028;-67
2021/07/23 10:54:14;;;;;;;4.53;1.90;;;15.50;49.70;;;;;;5099919;28;20039;-71
2021/07/23 10:57:10;;;;;;;1.40;0.90;;;15.60;49.30;;;;;;5109247;28;20024;-67
2021/07/23 10:59:42;;;;;;;;;;;15.70;47.80;;;;;;5106429;28;20016;-71
2021/07/23 11:02:31;;;;;;;10.05;5.97;;;15.90;46.90;;;;;;5099556;27;20337;-66
2021/07/23 11:05:05;;;;;;;4.43;1.70;;;16.00;47.10;;;;;;5101309;28;20020;-67
2021/07/23 11:07:32;;;;;;;2.53;1.00;;;16.10;47.20;;;;;;5105394;28;20030;-67
2021/07/23 11:09:59;;;;;;;3.67;1.00;;;16.20;45.50;;;;;;5106637;28;20060;-66
2021/07/23 11:12:31;;;;;;;2.30;0.95;;;16.30;45.70;;;;;;5107556;28;20521;-67
2021/07/23 11:14:58;;;;;;;4.65;1.23;;;16.30;44.70;;;;;;5107135;28;20030;-65
2021/07/23 11:17:29;;;;;;;8.25;2.15;;;16.40;44.50;;;;;;5107600;28;20030;-65
2021/07/23 11:20:07;;;;;;;5.38;1.45;;;16.50;45.20;;;;;;5104728;28;20710;-66
2021/07/23 11:22:37;;;;;;;1.60;1.02;;;16.60;45.30;;;;;;5106565;28;20051;-67
2021/07/23 11:25:07;;;;;;;6.55;1.65;;;16.70;45.00;;;;;;5107385;28;20019;-67
2021/07/23 11:27:38;;;;;;;2.50;1.17;;;16.80;46.10;;;;;;5105605;28;20020;-68
2021/07/23 11:30:14;;;;;;;3.15;1.30;;;16.80;45.60;;;;;;5106754;28;20371;-68
2021/07/23 11:32:58;;;;;;;3.25;1.13;;;16.90;46.10;;;;;;5104843;28;20773;-65
2021/07/23 11:35:30;;;;;;;4.82;1.38;;;16.90;44.20;;;;;;5106798;28;20034;-66
2021/07/23 11:37:59;;;;;;;5.68;1.63;;;16.90;45.40;;;;;;5104179;28;20102;-66
2021/07/23 11:40:26;;;;;;;5.10;1.20;;;17.00;45.50;;;;;;5104614;28;20043;-65
2021/07/23 11:42:54;;;;;;;2.53;1.13;;;17.10;44.00;;;;;;5103958;28;20055;-67
2021/07/23 11:45:32;;;;;;;7.72;1.60;;;17.10;44.70;;;;;;5103669;28;20020;-69
2021/07/23 11:48:13;;;;;;;4.30;1.63;;;17.20;44.80;;;;;;5102164;28;20022;-65
2021/07/23 11:50:54;;;;;;;7.53;1.52;;;17.30;44.50;;;;;;5105241;28;20363;-68
2021/07/23 11:53:20;;;;;;;3.88;1.60;;;17.30;43.90;;;;;;5102734;28;20146;-66
2021/07/23 11:55:47;;;;;;;1.70;1.15;;;17.40;43.40;;;;;;5105742;28;20035;-67
2021/07/23 11:58:25;;;;;;;2.97;1.17;;;17.50;44.30;;;;;;5102885;28;20108;-67
2021/07/23 12:00:52;;;;;;;7.13;1.88;;;17.50;43.60;;;;;;5105052;28;20028;-66
2021/07/23 12:03:24;;;;;;;3.47;1.20;;;17.50;41.90;;;;;;5105304;28;20024;-67
2021/07/23 12:05:51;;;;;;;11.00;1.80;;;17.50;42.60;;;;;;5109084;28;20027;-65
2021/07/23 12:08:20;;;;;;;4.03;1.65;;;17.60;44.10;;;;;;5104346;28;20373;-66
2021/07/23 12:10:48;;;;;;;6.82;1.73;;;17.60;44.10;;;;;;5105161;28;20054;-67
2021/07/23 12:13:16;;;;;;;11.75;1.67;;;17.60;44.00;;;;;;5102952;28;20024;-66
2021/07/23 12:15:54;;;;;;;4.38;1.40;;;17.60;43.50;;;;;;5103654;28;20027;-66
2021/07/23 12:18:22;;;;;;;8.55;1.73;;;17.70;44.00;;;;;;5106812;28;20028;-67
2021/07/23 12:20:50;;;;;;;4.07;1.73;;;17.70;43.30;;;;;;5105210;28;20048;-67
2021/07/23 12:23:44;;;;;;;6.10;1.60;;;17.70;42.80;;;;;;5104002;28;20082;-67
2021/07/23 12:26:30;;;;;;;4.20;1.58;;;17.70;42.60;;;;;;5104234;28;20142;-66
2021/07/23 12:28:58;;;;;;;5.07;1.83;;;17.70;42.80;;;;;;5101613;28;20466;-67
2021/07/23 12:31:25;;;;;;;5.55;1.20;;;17.80;43.00;;;;;;5108053;28;20478;-66
2021/07/23 12:34:21;;;;;;;5.78;1.75;;;17.90;43.70;;;;;;5101397;28;20366;-66
2021/07/23 12:36:51;;;;;;;6.85;2.17;;;17.90;43.10;;;;;;5094043;27;20112;-67
2021/07/23 12:39:23;;;;;;;6.28;1.85;;;17.90;42.70;;;;;;5103601;28;20428;-67
2021/07/23 12:41:50;;;;;;;4.78;1.73;;;17.80;43.70;;;;;;5106288;28;20455;-65
2021/07/23 12:44:18;;;;;;;4.57;1.80;;;17.90;43.70;;;;;;5103731;28;20386;-66
2021/07/23 12:46:49;;;;;;;5.85;1.95;;;17.80;43.30;;;;;;5099840;28;20482;-66
2021/07/23 12:49:23;;;;;;;4.20;2.05;;;18.00;43.10;;;;;;5101319;28;20031;-68
2021/07/23 12:52:04;;;;;;;4.97;1.90;;;18.00;43.30;;;;;;5107592;28;20039;-65
2021/07/23 12:54:37;;;;;;;5.35;2.80;;;18.00;42.90;;;;;;5101789;28;20034;-65
2021/07/23 12:57:18;;;;;;;6.05;2.58;;;18.10;42.60;;;;;;5097487;28;20031;-65
2021/07/23 12:59:47;;;;;;;3.70;2.35;;;18.10;43.30;;;;;;5101095;28;20492;-66
2021/07/23 13:02:15;;;;;;;4.85;2.63;;;18.10;42.80;;;;;;5104019;28;20039;-66
2021/07/23 13:04:42;;;;;;;4.68;2.83;;;18.10;42.50;;;;;;5099055;28;20600;-66
2021/07/23 13:07:11;;;;;;;6.90;3.15;;;18.10;42.90;;;;;;5102662;28;20520;-68
2021/07/23 13:09:44;;;;;;;10.02;2.72;;;18.10;42.80;;;;;;5104553;28;20035;-67
2021/07/23 13:12:15;;;;;;;5.95;2.33;;;18.10;42.90;;;;;;5102586;28;20470;-65
2021/07/23 13:14:41;;;;;;;5.65;2.60;;;18.10;43.00;;;;;;5100395;28;20048;-65
2021/07/23 13:17:08;;;;;;;8.90;2.72;;;18.10;42.40;;;;;;5103246;28;20030;-66
2021/07/23 13:19:35;;;;;;;12.20;3.28;;;18.10;43.20;;;;;;5102331;28;20076;-65